• Join FlightAware (Why Join?)
  • Login
  • US Flag 
02:30AM EDT


 

Airport Tracker/Info


-or-


 

Live Flight TrackerFlight Track Log ✈ EJA941 ✈ 22-Jun-2013 ✈ KSTL - KRNO

Flight Track Log - Related Links

Times and Time Zones

All times are in EDT time to prevent confusion due to time zone crossing. See the EJA941 flight status page for this flight to view local times or setup timezone preferences in your user account.

Time Position Orientation Groundspeed Altitude Reporting Facility
EDT Latitude Longitude Course Direction KTS MPH feet Rate Location/Type
10:30AM 38.7333 -90.3167 136° Southeast 181 208 1,900  Level Gateway (St. Louis) TRACON
10:31AM 38.7056 -90.2822 136° Southeast 236 272 3,700 2,340 Climbing Kansas City Center
10:32AM 38.6569 -90.3253 215° Southwest 249 287 6,100 3,060 Climbing Kansas City Center
10:33AM 38.6419 -90.4272 259° West 284 327 10,100 2,400 Climbing Kansas City Center
10:34AM 38.6897 -90.5267 302° West 313 360 11,100 1,200 Climbing Kansas City Center
10:35AM 38.7411 -90.6422 300° West 360 414 12,600 1,500 Climbing Kansas City Center
10:36AM 38.7928 -90.7575 300° West 370 426 14,300 1,500 Climbing Kansas City Center
10:37AM 38.8561 -90.8992 300° West 378 435 15,800 1,320 Climbing Kansas City Center
10:38AM 38.9089 -91.0181 300° West 383 441 17,100 1,080 Climbing Kansas City Center
10:39AM 38.9625 -91.1419 299° West 391 450 18,100 1,020 Climbing Kansas City Center
10:40AM 38.9892 -91.2822 284° West 404 465 19,300 1,080 Climbing Kansas City Center
10:41AM 39.0103 -91.4239 281° West 407 468 20,400 960 Climbing Kansas City Center
10:42AM 39.0314 -91.5725 280° West 417 480 21,300 960 Climbing Kansas City Center
10:43AM 39.0433 -91.7369 275° West 422 486 22,500 1,260 Climbing Kansas City Center
10:44AM 39.0364 -91.8894 267° West 426 490 24,000 1,200 Climbing Kansas City Center
10:45AM 39.0297 -92.0425 267° West 428 493 25,100 1,020 Climbing Kansas City Center
10:46AM 39.0261 -92.2269 269° West 430 495 26,200 900 Climbing Kansas City Center
10:47AM 39.0225 -92.3844 268° West 436 502 27,000 720 Climbing Kansas City Center
10:48AM 39.0194 -92.5478 269° West 447 514 27,700 720 Climbing Kansas City Center
10:49AM 39.0164 -92.7219 269° West 458 527 28,500 720 Climbing Kansas City Center
10:50AM 39.0125 -92.8922 268° West 469 540 29,300 720 Climbing Kansas City Center
10:52AM 39.0169 -93.0656 272° West 488 562 30,000 720 Climbing Kansas City Center
10:53AM 39.0281 -93.2406 275° West 495 570 30,900 1,200 Climbing Kansas City Center
10:54AM 39.0403 -93.4450 274° West 493 567 32,500 1,620 Climbing Kansas City Center
10:55AM 39.0519 -93.6097 275° West 484 557 34,300 1,500 Climbing Kansas City Center
10:56AM 39.0625 -93.7992 274° West 477 549 35,700 1,260 Climbing Kansas City Center
10:57AM 39.0711 -93.9611 274° West 474 545 37,000 1,140 Climbing Kansas City Center
10:58AM 39.0819 -94.1536 274° West 482 555 38,100 1,080 Climbing Kansas City Center
10:59AM 39.0917 -94.3189 274° West 483 556 39,300 900 Climbing Kansas City Center
11:00AM 39.1011 -94.5136 274° West 487 560 40,000 300 Climbing Kansas City Center
11:01AM 39.1092 -94.6869 273° West 505 581 40,000  Level Kansas City Center
11:02AM 39.1194 -94.8961 274° West 522 601 40,000  Level Kansas City Center
11:03AM 39.0950 -95.0714 260° West 516 594 40,000  Level Kansas City Center
11:04AM 39.0553 -95.2717 256° West 520 598 40,000  Level Kansas City Center
11:05AM 39.0225 -95.4519 257° West 520 598 40,000  Level Kansas City Center
11:06AM 38.9892 -95.6244 256° West 517 595 40,000  Level Kansas City Center
11:07AM 38.9500 -95.8264 256° West 519 597 40,000  Level Kansas City Center
11:08AM 38.9158 -95.9992 256° West 520 598 40,000  Level Kansas City Center
11:09AM 38.8761 -96.2003 256° West 520 598 40,000  Level Kansas City Center
11:10AM 38.8406 -96.3719 255° West 519 597 40,000  Level Kansas City Center
11:11AM 38.8019 -96.5572 255° West 517 595 40,000  Level Kansas City Center
11:12AM 38.7656 -96.7342 255° West 515 593 40,000  Level Kansas City Center
11:13AM 38.7314 -96.9117 256° West 515 593 40,000  Level Kansas City Center
11:14AM 38.6950 -97.0856 255° West 509 586 40,000  Level Kansas City Center
11:15AM 38.6592 -97.2592 255° West 507 583 40,000  Level Kansas City Center
11:16AM 38.6147 -97.4653 255° West 504 580 40,000  Level Kansas City Center
11:17AM 38.5789 -97.6358 255° West 500 575 40,000  Level Kansas City Center
11:18AM 38.5431 -97.8067 255° West 501 577 40,000  Level Kansas City Center
11:19AM 38.5128 -97.9722 257° West 485 558 40,000  Level Kansas City Center
11:20AM 38.5483 -98.1364 286° West 483 556 40,000  Level Kansas City Center
11:22AM 38.6153 -98.3256 294° West 489 563 40,000  Level Kansas City Center
11:23AM 38.6717 -98.4864 294° West 494 568 40,000  Level Kansas City Center
11:24AM 38.7272 -98.6481 294° West 498 573 40,000  Level Kansas City Center
11:25AM 38.7678 -98.8164 287° West 497 572 40,000  Level Kansas City Center
11:26AM 38.8069 -98.9886 286° West 502 578 40,000  Level Kansas City Center
11:27AM 38.8464 -99.1594 287° West 502 578 40,000  Level Kansas City Center
11:28AM 38.8919 -99.3658 286° West 502 578 40,000  Level Kansas City Center
11:29AM 38.9300 -99.5375 286° West 502 578 40,000  Level Kansas City Center
11:29AM 38.9519 -99.6383 286° West 500 575 40,000  Level Denver Center
11:30AM 38.9939 -99.8294 286° West 499 574 40,000  Level Denver Center
11:31AM 39.0306 -99.9956 286° West 503 579 40,000  Level Denver Center
11:33AM 39.0728 -100.1869 286° West 505 581 40,000  Level Denver Center
11:34AM 39.1086 -100.3525 286° West 503 579 40,000  Level Denver Center
11:35AM 39.1489 -100.5461 285° West 499 574 40,000  Level Denver Center
11:36AM 39.1842 -100.7119 285° West 500 575 40,000  Level Denver Center
11:37AM 39.2261 -100.9067 286° West 504 580 40,000  Level Denver Center
11:38AM 39.2603 -101.0744 285° West 504 580 40,000  Level Denver Center
11:39AM 39.3006 -101.2703 285° West 505 581 40,000  Level Denver Center
11:40AM 39.3358 -101.4372 285° West 504 580 40,000  Level Denver Center
11:41AM 39.3697 -101.6042 285° West 503 579 40,000  Level Denver Center
11:42AM 39.4003 -101.8019 281° West 503 579 40,000  Level Denver Center
11:43AM 39.4192 -101.9717 278° West 498 573 40,000  Level Denver Center
11:44AM 39.4425 -102.1669 279° West 492 566 40,000  Level Denver Center
11:45AM 39.4600 -102.3333 278° West 488 562 40,000  Level Denver Center
11:46AM 39.4817 -102.5306 278° West 483 556 40,000  Level Denver Center
11:47AM 39.5000 -102.6972 278° West 472 543 40,000  Level Denver Center
11:48AM 39.5178 -102.8653 278° West 472 543 40,000  Level Denver Center
11:49AM 39.5342 -103.0311 277° West 467 537 40,000  Level Denver Center
11:50AM 39.5508 -103.1967 277° West 464 534 40,000  Level Denver Center
11:51AM 39.5689 -103.3617 278° West 465 535 40,000  Level Denver Center
11:52AM 39.5886 -103.5586 277° West 461 531 40,000  Level Denver Center
11:53AM 39.6044 -103.7233 277° West 462 532 40,000  Level Denver Center
11:54AM 39.6208 -103.8889 277° West 464 534 40,000  Level Denver Center
11:55AM 39.6367 -104.0528 277° West 461 531 40,000  Level Denver Center
11:56AM 39.6528 -104.2144 277° West 454 522 40,000  Level Denver Center
11:57AM 39.6672 -104.3769 277° West 453 521 40,000  Level Denver Center
11:58AM 39.6850 -104.5722 277° West 459 528 40,000  Level Denver Center
11:59AM 39.6800 -104.7333 268° West 483 556 40,000  Level Denver Center
12:00PM 39.6625 -104.8972 262° West 472 543 40,000  Level Denver Center
12:01PM 39.6414 -105.0908 262° West 454 522 40,000  Level Denver Center
12:02PM 39.6236 -105.2592 262° West 464 534 40,000  Level Denver Center
12:04PM 39.6056 -105.4222 262° West 454 522 40,000  Level Denver Center
12:05PM 39.5872 -105.5878 262° West 458 527 40,000  Level Denver Center
12:06PM 39.5692 -105.7522 262° West 457 526 40,000  Level Denver Center
12:07PM 39.5536 -105.9131 263° West 449 517 40,000  Level Denver Center
12:08PM 39.5311 -106.1114 262° West 463 533 40,000  Level Denver Center
12:09PM 39.5122 -106.2767 262° West 466 536 40,000  Level Denver Center
12:10PM 39.4928 -106.4436 261° West 468 539 40,000  Level Denver Center
12:11PM 39.4714 -106.6261 261° West 468 539 40,000  Level Denver Center
12:12PM 39.4525 -106.7878 261° West 474 545 40,000  Level Denver Center
12:13PM 39.4247 -106.9725 259° West 471 542 40,000  Level Denver Center
12:14PM 39.3942 -107.1292 256° West 470 541 40,000  Level Denver Center
12:15PM 39.3625 -107.3133 258° West 469 540 40,000  Level Denver Center
12:16PM 39.3433 -107.4736 261° West 471 542 40,000  Level Denver Center
12:17PM 39.3231 -107.6353 261° West 475 547 40,000  Level Denver Center
12:18PM 39.2994 -107.8225 261° West 473 544 40,000  Level Denver Center
12:19PM 39.2778 -107.9847 260° West 475 547 40,000  Level Denver Center
12:20PM 39.2536 -108.1719 261° West 473 544 40,000  Level Denver Center
12:21PM 39.2328 -108.3319 261° West 472 543 40,000  Level Denver Center
12:22PM 39.2069 -108.5178 260° West 466 536 40,000  Level Denver Center
12:23PM 39.1850 -108.6761 260° West 465 535 40,000  Level Denver Center
12:24PM 39.1603 -108.8608 260° West 467 537 40,000  Level Denver Center
12:25PM 39.1369 -109.0178 259° West 464 534 40,000  Level Denver Center
12:26PM 39.1156 -109.1733 260° West 461 531 40,000  Level Denver Center
12:27PM 39.0903 -109.3564 260° West 465 535 40,000  Level Denver Center
12:28PM 39.0664 -109.5125 259° West 463 533 40,000  Level Denver Center
12:29PM 39.0422 -109.6956 260° West 464 534 40,000  Level Denver Center
12:30PM 39.0192 -109.8514 259° West 463 533 40,000  Level Denver Center
12:31PM 39.0003 -109.9800 259° West 460 529 40,000  Level Salt Lake Center
12:32PM 38.9778 -110.1331 259° West 456 525 40,000  Level Salt Lake Center
12:33PM 38.9594 -110.3142 263° West 458 527 40,000  Level Salt Lake Center
12:34PM 38.9586 -110.4706 270° West 458 527 40,000  Level Salt Lake Center
12:35PM 38.9547 -110.6536 268° West 459 528 40,000  Level Salt Lake Center
12:36PM 38.9508 -110.8100 268° West 458 527 40,000  Level Salt Lake Center
12:37PM 38.9478 -110.9617 269° West 451 519 40,000  Level Salt Lake Center
12:38PM 38.9425 -111.1564 268° West 454 522 40,000  Level Salt Lake Center
12:39PM 38.9386 -111.3194 268° West 456 525 40,000  Level Salt Lake Center
12:40PM 38.9342 -111.4819 268° West 457 526 40,000  Level Salt Lake Center
12:42PM 38.9292 -111.6456 268° West 459 528 40,000  Level Salt Lake Center
12:43PM 38.9247 -111.8078 268° West 458 527 40,000  Level Salt Lake Center
12:44PM 38.9183 -112.0025 268° West 456 525 40,000  Level Salt Lake Center
12:45PM 38.9125 -112.1661 267° West 460 529 40,000  Level Salt Lake Center
12:46PM 38.9067 -112.3300 267° West 462 532 40,000  Level Salt Lake Center
12:47PM 38.9006 -112.4961 267° West 466 536 40,000  Level Salt Lake Center
12:48PM 38.8939 -112.6614 267° West 467 537 40,000  Level Salt Lake Center
12:49PM 38.8886 -112.8289 268° West 471 542 40,000  Level Salt Lake Center
12:50PM 38.8794 -113.0294 267° West 471 542 40,000  Level Salt Lake Center
12:51PM 38.8725 -113.1942 267° West 468 539 40,000  Level Salt Lake Center
12:52PM 38.8656 -113.3633 267° West 471 542 40,000  Level Salt Lake Center
12:53PM 38.8581 -113.5272 267° West 465 535 40,000  Level Salt Lake Center
12:54PM 38.8511 -113.6950 267° West 471 542 40,000  Level Salt Lake Center
12:55PM 38.8417 -113.8944 267° West 470 541 40,000  Level Salt Lake Center
12:56PM 38.8331 -114.0606 266° West 471 542 40,000  Level Salt Lake Center
12:57PM 38.8244 -114.2286 266° West 474 545 40,000  Level Salt Lake Center
12:58PM 38.8161 -114.3947 266° West 471 542 40,000  Level Salt Lake Center
12:59PM 38.8069 -114.5611 266° West 470 541 40,000  Level Salt Lake Center
01:00PM 38.7981 -114.7292 266° West 474 545 40,000  Level Salt Lake Center
01:01PM 38.7858 -114.9319 266° West 476 548 40,000  Level Salt Lake Center
01:02PM 38.7767 -115.1003 266° West 475 547 40,000  Level Salt Lake Center
01:03PM 38.7644 -115.2686 265° West 475 547 40,000  Level Salt Lake Center
01:04PM 38.7547 -115.4236 265° West 472 543 40,000  Level Salt Lake Center
01:05PM 38.7422 -115.6208 265° West 465 535 40,000  Level Salt Lake Center
01:06PM 38.7319 -115.7847 265° West 463 533 40,000  Level Salt Lake Center
01:07PM 38.7211 -115.9469 265° West 458 527 40,000  Level Salt Lake Center
01:08PM 38.7100 -116.1078 265° West 456 525 40,000  Level Salt Lake Center
01:09PM 38.6992 -116.2706 265° West 459 528 40,000  Level Salt Lake Center
01:10PM 38.6881 -116.4303 265° West 454 522 40,000  Level Salt Lake Center
01:11PM 38.6767 -116.5906 265° West 454 522 40,000  Level Salt Lake Center
01:12PM 38.6625 -116.7825 265° West 453 521 40,000  Level Salt Lake Center
01:14PM 38.6514 -116.9422 265° West 453 521 40,000  Level Salt Lake Center
01:15PM 38.6392 -117.1014 264° West 453 521 40,000  Level Salt Lake Center
01:16PM 38.6267 -117.2625 264° West 457 526 40,000  Level Salt Lake Center
01:17PM 38.6136 -117.4242 264° West 459 528 40,000 -780 Level Salt Lake Center
01:18PM 38.5983 -117.6178 264° West 461 531 38,500 -2,160 Descending Salt Lake Center
01:19PM 38.5853 -117.7800 264° West 459 528 35,600 -3,000 Descending Salt Lake Center
01:20PM 38.5722 -117.9458 264° West 468 539 32,300 -2,640 Descending Salt Lake Center
01:21PM 38.6000 -118.1125 282° West 492 566 30,300 -1,920 Descending Salt Lake Center
01:22PM 38.6672 -118.2600 300° West 482 555 28,400 -2,220 Descending Salt Lake Center
01:23PM 38.7342 -118.4094 300° West 483 556 25,800 -2,580 Descending Salt Lake Center
01:24PM 38.8003 -118.5586 300° West 462 532 23,100 -2,520 Descending Salt Lake Center
01:25PM 38.8761 -118.7283 300° West 456 525 20,300 -2,280 Descending Oakland Center
01:26PM 38.9378 -118.8678 300° West 449 517 18,100 -2,040 Descending Oakland Center
01:27PM 39.0047 -118.9944 304° West 429 494 16,200 -1,080 Descending Oakland Center
01:28PM 39.0911 -119.1019 316° Northwest 428 493 16,000 -600 Descending Oakland Center
01:29PM 39.1764 -119.2094 316° Northwest 427 491 15,000 -1,620 Descending Oakland Center
01:30PM 39.2761 -119.3342 316° Northwest 417 480 12,800 -1,620 Descending Oakland Center
01:31PM 39.3486 -119.4250 316° Northwest 381 438 11,700 -1,260 Descending Oakland Center
01:32PM 39.4106 -119.5042 315° West 336 387 10,300 -1,260 Descending Oakland Center
01:33PM 39.4658 -119.5728 316° Northwest 303 349 9,200 -840 Descending Oakland Center
01:34PM 39.5100 -119.6281 316° Northwest 255 293 8,700 -720 Descending Oakland Center
01:35PM 39.5333 -119.6667 308° West 202 232 8,000 -1,200 Descending Northern Cal TRACON
01:36PM 39.5667 -119.7167 311° West 175 201 6,700 -1,080 Descending Northern Cal TRACON
01:37PM 39.5667 -119.7667 270° West 160 184 5,900 -960 Descending Northern Cal TRACON
01:38PM 39.5333 -119.7667 180° South 141 162 4,900 -1,140 Descending Northern Cal TRACON
01:40PM 39.4991 -119.7681 237° Southwest  Level Estimated